createdAt,value
2019-05-19T00:01:02.970Z,20.72
2019-05-19T00:03:24.218Z,19.98
2019-05-19T00:05:45.610Z,17.92
2019-05-19T00:08:07.937Z,20.55
2019-05-19T00:10:30.024Z,20.85
2019-05-19T00:12:52.301Z,20.02
2019-05-19T00:15:13.734Z,18.73
2019-05-19T00:17:35.016Z,17.90
2019-05-19T00:19:56.395Z,20.65
2019-05-19T00:22:24.006Z,20.40
2019-05-19T00:24:47.347Z,20.37
2019-05-19T00:27:09.819Z,18.80
2019-05-19T00:29:31.451Z,20.97
2019-05-19T00:31:52.839Z,19.92
2019-05-19T00:34:14.423Z,18.87
2019-05-19T00:36:35.863Z,18.42
2019-05-19T00:38:57.276Z,19.07
2019-05-19T00:41:19.061Z,19.05
2019-05-19T00:43:40.585Z,19.32
2019-05-19T00:46:02.005Z,18.35
2019-05-19T00:48:23.287Z,18.48
2019-05-19T00:50:44.803Z,17.20
2019-05-19T00:53:06.298Z,17.12
2019-05-19T00:55:27.782Z,18.73
2019-05-19T00:57:49.110Z,18.55
2019-05-19T01:00:10.984Z,17.15
2019-05-19T01:02:32.571Z,18.10
2019-05-19T01:04:54.230Z,16.30
2019-05-19T01:07:15.724Z,17.55
2019-05-19T01:09:37.306Z,19.07
2019-05-19T01:11:58.836Z,17.73
2019-05-19T01:14:20.621Z,18.80
2019-05-19T01:16:42.006Z,17.50
2019-05-19T01:19:03.443Z,17.35
2019-05-19T01:21:24.932Z,16.60
2019-05-19T01:23:46.322Z,17.87
2019-05-19T01:26:08.258Z,17.20
2019-05-19T01:28:30.050Z,18.15
2019-05-19T01:30:51.540Z,17.40
2019-05-19T01:33:13.154Z,17.17
2019-05-19T01:35:34.645Z,17.82
2019-05-19T01:37:56.348Z,19.30
2019-05-19T01:40:18.242Z,19.50
2019-05-19T01:42:39.976Z,19.07
2019-05-19T01:45:01.992Z,16.62
2019-05-19T01:47:23.300Z,18.85
2019-05-19T01:49:44.672Z,17.35
2019-05-19T01:52:06.169Z,18.75
2019-05-19T01:54:27.895Z,17.85
2019-05-19T01:56:49.288Z,19.23
2019-05-19T01:59:10.884Z,19.07
2019-05-19T02:01:32.338Z,18.60
2019-05-19T02:03:53.719Z,19.12
2019-05-19T02:06:15.109Z,18.67
2019-05-19T02:08:36.786Z,19.92
2019-05-19T02:10:58.255Z,18.20
2019-05-19T02:13:19.860Z,18.42
2019-05-19T02:15:41.266Z,19.30
2019-05-19T02:18:03.061Z,20.80
2019-05-19T02:20:32.909Z,19.37
2019-05-19T02:22:47.674Z,19.73
2019-05-19T02:25:09.202Z,19.25
2019-05-19T02:27:30.815Z,19.02
2019-05-19T02:29:52.115Z,18.60
2019-05-19T02:32:13.641Z,18.23
2019-05-19T02:34:34.938Z,19.85
2019-05-19T02:36:56.345Z,19.20
2019-05-19T02:39:18.371Z,19.45
2019-05-19T02:41:39.827Z,19.73
2019-05-19T02:44:01.312Z,17.55
2019-05-19T02:46:24.199Z,18.85
2019-05-19T02:48:45.574Z,19.55
2019-05-19T02:51:07.162Z,18.77
2019-05-19T02:53:28.835Z,18.12
2019-05-19T02:55:50.239Z,19.60
2019-05-19T02:58:11.845Z,18.37
2019-05-19T03:00:37.994Z,19.35
2019-05-19T03:02:59.463Z,18.62
2019-05-19T03:05:20.837Z,19.05
2019-05-19T03:07:42.364Z,18.10
2019-05-19T03:10:04.150Z,17.75
2019-05-19T03:12:25.538Z,18.02
2019-05-19T03:14:47.158Z,18.37
2019-05-19T03:17:08.758Z,18.35
2019-05-19T03:19:30.133Z,17.48
2019-05-19T03:21:51.753Z,18.17
2019-05-19T03:24:13.267Z,17.48
2019-05-19T03:26:35.143Z,16.97
2019-05-19T03:28:56.557Z,16.70
2019-05-19T03:31:22.632Z,16.70
2019-05-19T03:33:45.811Z,18.42
2019-05-19T03:36:07.107Z,17.37
2019-05-19T03:38:28.599Z,17.37
2019-05-19T03:40:49.928Z,18.80
2019-05-19T03:43:11.218Z,17.45
2019-05-19T03:45:32.805Z,18.35
2019-05-19T03:48:14.078Z,17.75
2019-05-19T03:50:35.368Z,18.90
2019-05-19T03:52:56.862Z,17.40
2019-05-19T03:55:19.495Z,18.17
2019-05-19T03:57:40.987Z,17.60
2019-05-19T04:00:04.857Z,17.45
2019-05-19T04:02:26.487Z,16.80
2019-05-19T04:04:48.250Z,16.35
2019-05-19T04:07:09.530Z,16.70
2019-05-19T04:09:30.957Z,16.57
2019-05-19T04:11:52.459Z,18.10
2019-05-19T04:14:33.585Z,15.83
2019-05-19T04:16:55.067Z,17.40
2019-05-19T04:19:16.394Z,17.07
2019-05-19T04:21:48.272Z,16.75
2019-05-19T04:24:01.278Z,17.27
2019-05-19T04:26:22.601Z,16.27
2019-05-19T04:28:44.205Z,16.20
2019-05-19T04:31:05.709Z,16.73
2019-05-19T04:33:27.133Z,16.02
2019-05-19T04:35:48.407Z,15.95
2019-05-19T04:38:09.692Z,16.55
2019-05-19T04:40:31.245Z,16.42
2019-05-19T04:42:52.799Z,16.87
2019-05-19T04:45:14.290Z,18.50
2019-05-19T04:47:35.927Z,17.40
2019-05-19T04:49:57.416Z,17.95
2019-05-19T04:52:19.014Z,16.77
2019-05-19T04:55:00.276Z,17.62
2019-05-19T04:57:21.716Z,17.30
2019-05-19T04:59:43.292Z,16.55
2019-05-19T05:02:04.635Z,16.32
2019-05-19T05:04:29.334Z,14.10
2019-05-19T05:06:49.437Z,15.48
2019-05-19T05:09:10.945Z,13.62
2019-05-19T05:11:32.531Z,14.53
2019-05-19T05:13:54.015Z,15.28
2019-05-19T05:16:15.349Z,14.43
2019-05-19T05:18:37.635Z,13.50
2019-05-19T05:20:59.000Z,13.48
2019-05-19T05:23:20.422Z,13.18
2019-05-19T05:25:41.829Z,13.38
2019-05-19T05:28:03.322Z,13.13
2019-05-19T05:30:24.838Z,13.58
2019-05-19T05:32:46.232Z,13.30
2019-05-19T05:35:07.710Z,14.35
2019-05-19T05:37:29.234Z,13.30
2019-05-19T05:39:50.882Z,13.95
2019-05-19T05:42:12.255Z,13.60
2019-05-19T05:44:34.225Z,14.15
2019-05-19T05:46:55.631Z,13.32
2019-05-19T05:49:17.110Z,15.18
2019-05-19T05:51:38.978Z,14.65
2019-05-19T05:54:00.542Z,14.68
2019-05-19T05:56:21.836Z,14.13
2019-05-19T05:58:43.312Z,14.55
2019-05-19T06:01:04.806Z,13.78
2019-05-19T06:03:26.201Z,14.20
2019-05-19T06:05:47.867Z,13.85
2019-05-19T06:08:09.409Z,14.03
2019-05-19T06:10:30.917Z,14.73
2019-05-19T06:12:54.497Z,14.47
2019-05-19T06:15:15.762Z,14.63
2019-05-19T06:17:37.159Z,14.65
2019-05-19T06:19:58.794Z,13.72
2019-05-19T06:22:20.188Z,13.70
2019-05-19T06:24:41.553Z,14.05
2019-05-19T06:27:02.859Z,13.68
2019-05-19T06:29:24.439Z,13.65
2019-05-19T06:31:45.931Z,13.08
2019-05-19T06:34:07.581Z,13.00
2019-05-19T06:36:28.852Z,14.28
2019-05-19T06:38:50.289Z,14.00
2019-05-19T06:41:11.787Z,12.85
2019-05-19T06:43:33.075Z,14.85
2019-05-19T06:45:54.562Z,14.28
2019-05-19T06:48:15.977Z,14.05
2019-05-19T06:50:40.668Z,15.63
2019-05-19T06:53:13.575Z,16.67
2019-05-19T06:55:24.063Z,15.93
2019-05-19T06:57:45.433Z,17.40
2019-05-19T07:00:06.824Z,17.25
2019-05-19T07:02:28.351Z,17.75
2019-05-19T07:04:49.722Z,17.77
2019-05-19T07:07:11.123Z,17.62
2019-05-19T07:09:32.546Z,19.00
2019-05-19T07:11:53.954Z,18.98
2019-05-19T07:14:15.241Z,19.75
2019-05-19T07:16:36.827Z,17.12
2019-05-19T07:18:58.109Z,19.45
2019-05-19T07:21:19.403Z,21.17
2019-05-19T07:23:40.903Z,21.52
2019-05-19T07:26:02.396Z,20.88
2019-05-19T07:28:24.298Z,21.02
2019-05-19T07:30:45.809Z,23.25
2019-05-19T07:33:07.099Z,23.15
2019-05-19T07:35:28.601Z,21.55
2019-05-19T07:37:50.030Z,20.32
2019-05-19T07:40:11.402Z,21.93
2019-05-19T07:42:32.896Z,21.12
2019-05-19T07:44:54.405Z,22.60
2019-05-19T07:47:15.681Z,23.22
2019-05-19T07:49:37.174Z,22.10
2019-05-19T07:51:58.833Z,22.90
2019-05-19T07:54:20.286Z,22.58
2019-05-19T07:56:41.554Z,23.07
2019-05-19T07:59:03.064Z,23.85
2019-05-19T08:01:24.348Z,21.85
2019-05-19T08:03:45.838Z,23.80
2019-05-19T08:06:07.746Z,21.95
2019-05-19T08:08:29.125Z,21.90
2019-05-19T08:10:50.578Z,22.40
2019-05-19T08:13:12.104Z,23.50
2019-05-19T08:15:33.514Z,20.92
2019-05-19T08:17:55.113Z,20.80
2019-05-19T08:20:16.658Z,19.32
2019-05-19T08:22:38.236Z,19.95
2019-05-19T08:24:59.524Z,17.92
2019-05-19T08:27:21.068Z,17.87
2019-05-19T08:29:42.751Z,19.73
2019-05-19T08:32:04.250Z,18.98
2019-05-19T08:34:25.626Z,20.35
2019-05-19T08:36:47.209Z,19.17
2019-05-19T08:39:08.814Z,20.68
2019-05-19T08:41:30.321Z,22.07
2019-05-19T08:43:53.359Z,21.23
2019-05-19T08:46:15.012Z,23.25
2019-05-19T08:48:36.448Z,20.32
2019-05-19T08:50:58.034Z,22.35
2019-05-19T08:53:19.423Z,21.52
2019-05-19T08:55:40.847Z,24.10
2019-05-19T08:58:05.092Z,23.35
2019-05-19T09:02:48.057Z,24.27
2019-05-19T09:05:09.461Z,23.83
2019-05-19T09:07:30.846Z,24.07
2019-05-19T09:09:52.271Z,22.13
2019-05-19T09:12:13.781Z,25.90
2019-05-19T09:14:35.368Z,24.65
2019-05-19T09:16:57.003Z,24.02
2019-05-19T09:19:18.295Z,24.55
2019-05-19T09:21:42.108Z,25.00
2019-05-19T09:24:03.501Z,24.25
2019-05-19T09:26:24.886Z,24.57
2019-05-19T09:28:46.374Z,23.00
2019-05-19T09:31:07.818Z,22.62
2019-05-19T09:33:29.204Z,22.17
2019-05-19T09:35:50.608Z,21.52
2019-05-19T09:38:11.925Z,21.12
2019-05-19T09:40:33.341Z,22.25
2019-05-19T09:42:54.963Z,23.60
2019-05-19T09:45:16.422Z,20.57
2019-05-19T09:47:37.962Z,19.87
2019-05-19T09:49:59.420Z,21.52
2019-05-19T09:52:40.866Z,20.02
2019-05-19T09:55:03.747Z,18.07
2019-05-19T09:57:25.143Z,19.57
2019-05-19T09:59:46.586Z,19.98
2019-05-19T10:02:08.232Z,19.00
2019-05-19T10:04:29.706Z,17.70
2019-05-19T10:06:51.144Z,17.00
2019-05-19T10:09:21.616Z,15.25
2019-05-19T10:12:01.934Z,15.75
2019-05-19T10:14:23.420Z,17.87
2019-05-19T10:16:44.708Z,17.50
2019-05-19T10:19:06.607Z,18.20
2019-05-19T10:21:28.099Z,18.90
2019-05-19T10:23:49.499Z,14.35
2019-05-19T10:26:11.244Z,12.63
2019-05-19T10:28:32.825Z,11.97
2019-05-19T10:30:54.926Z,12.78
2019-05-19T10:33:16.201Z,11.97
2019-05-19T10:35:37.811Z,11.48
2019-05-19T10:37:59.240Z,10.28
2019-05-19T10:40:20.719Z,8.90
2019-05-19T10:42:42.215Z,9.28
2019-05-19T10:45:07.333Z,10.03
2019-05-19T10:47:28.810Z,10.48
2019-05-19T10:49:50.399Z,10.00
2019-05-19T10:52:11.828Z,10.00
2019-05-19T10:54:33.416Z,8.88
2019-05-19T10:56:54.912Z,9.13
2019-05-19T10:59:16.320Z,9.78
2019-05-19T11:01:37.512Z,9.53
2019-05-19T11:03:58.918Z,8.28
2019-05-19T11:06:20.415Z,8.80
2019-05-19T11:08:41.741Z,8.65
2019-05-19T11:11:03.249Z,8.33
2019-05-19T11:13:24.750Z,7.90
2019-05-19T11:15:46.092Z,7.75
2019-05-19T11:18:07.362Z,7.80
2019-05-19T11:20:28.976Z,8.68
2019-05-19T11:22:50.858Z,7.62
2019-05-19T11:25:12.463Z,7.22
2019-05-19T11:27:34.182Z,7.03
2019-05-19T11:29:55.513Z,6.30
2019-05-19T11:32:17.120Z,6.20
2019-05-19T11:34:38.503Z,6.17
2019-05-19T11:37:00.123Z,6.75
2019-05-19T11:39:21.668Z,6.55
2019-05-19T11:41:43.055Z,6.30
2019-05-19T11:44:04.514Z,6.12
2019-05-19T11:46:28.558Z,5.70
2019-05-19T11:48:50.267Z,5.55
2019-05-19T11:51:12.022Z,5.70
2019-05-19T11:53:33.618Z,5.22
2019-05-19T11:56:06.081Z,5.60
2019-05-19T11:58:18.196Z,5.75
2019-05-19T12:00:41.268Z,5.75
2019-05-19T12:03:02.855Z,5.43
2019-05-19T12:05:24.310Z,5.90
2019-05-19T12:07:45.618Z,5.35
2019-05-19T12:10:06.917Z,7.10
2019-05-19T12:12:28.795Z,9.00
2019-05-19T12:14:50.295Z,5.42
2019-05-19T12:17:11.779Z,5.08
2019-05-19T12:19:33.322Z,4.87
2019-05-19T12:21:55.558Z,5.22
2019-05-19T12:24:17.300Z,5.33
2019-05-19T12:26:38.783Z,5.10
2019-05-19T12:29:00.195Z,5.30
2019-05-19T12:31:21.735Z,5.72
2019-05-19T12:33:51.686Z,5.42
2019-05-19T12:36:06.290Z,5.63
2019-05-19T12:38:27.763Z,5.53
2019-05-19T12:40:49.146Z,5.50
2019-05-19T12:43:10.846Z,5.40
2019-05-19T12:45:32.490Z,5.10
2019-05-19T12:47:53.970Z,5.10
2019-05-19T12:50:15.594Z,4.97
2019-05-19T12:52:37.195Z,5.00
2019-05-19T12:54:58.726Z,4.92
2019-05-19T12:57:21.351Z,5.12
2019-05-19T12:59:43.153Z,5.15
2019-05-19T13:02:04.765Z,5.55
2019-05-19T13:04:32.128Z,4.85
2019-05-19T13:06:53.547Z,5.20
2019-05-19T13:09:15.247Z,4.60
2019-05-19T13:11:36.978Z,4.87
2019-05-19T13:13:58.595Z,5.37
2019-05-19T13:16:19.992Z,4.65
2019-05-19T13:18:41.567Z,5.03
2019-05-19T13:21:03.120Z,4.72
2019-05-19T13:23:24.413Z,4.20
2019-05-19T13:25:45.862Z,4.95
2019-05-19T13:28:07.245Z,4.10
2019-05-19T13:30:28.653Z,4.40
2019-05-19T13:32:49.960Z,4.62
2019-05-19T13:35:11.258Z,4.62
2019-05-19T13:37:32.770Z,4.17
2019-05-19T13:40:13.954Z,4.20
2019-05-19T13:42:35.610Z,4.67
2019-05-19T13:44:56.872Z,4.85
2019-05-19T13:47:18.172Z,4.28
2019-05-19T13:49:39.562Z,4.00
2019-05-19T13:52:00.798Z,3.22
2019-05-19T13:54:22.407Z,3.58
2019-05-19T13:56:43.733Z,3.87
2019-05-19T13:59:05.245Z,4.20
2019-05-19T14:01:28.915Z,3.12
2019-05-19T14:03:52.155Z,2.90
2019-05-19T14:06:13.121Z,4.12
2019-05-19T14:08:34.922Z,3.58
2019-05-19T14:10:56.480Z,3.75
2019-05-19T14:13:17.771Z,3.45
2019-05-19T14:15:40.744Z,3.50
2019-05-19T14:18:02.191Z,3.90
2019-05-19T14:20:23.708Z,3.67
2019-05-19T14:22:45.165Z,3.90
2019-05-19T14:25:07.074Z,3.27
2019-05-19T14:27:30.727Z,3.25
2019-05-19T14:29:51.601Z,3.42
2019-05-19T14:32:13.143Z,4.10
2019-05-19T14:34:34.718Z,3.65
2019-05-19T14:36:55.999Z,3.90
2019-05-19T14:39:17.449Z,3.85
2019-05-19T14:41:40.635Z,3.90
2019-05-19T14:44:02.443Z,3.47
2019-05-19T14:46:23.967Z,3.70
2019-05-19T14:48:45.353Z,3.40
2019-05-19T14:51:07.057Z,3.62
2019-05-19T14:53:48.330Z,4.05
2019-05-19T14:56:09.612Z,3.92
2019-05-19T14:58:30.993Z,3.98
2019-05-19T15:00:52.541Z,3.80
2019-05-19T15:03:14.033Z,3.62
2019-05-19T15:05:35.671Z,4.08
2019-05-19T15:07:57.100Z,3.80
2019-05-19T15:10:18.473Z,3.50
2019-05-19T15:12:39.973Z,4.03
2019-05-19T15:15:01.800Z,3.77
2019-05-19T15:17:23.177Z,4.10
2019-05-19T15:19:44.473Z,3.65
2019-05-19T15:22:05.806Z,4.10
2019-05-19T15:24:27.583Z,4.17
2019-05-19T15:26:48.861Z,3.85
2019-05-19T15:29:10.620Z,4.50
2019-05-19T15:31:32.005Z,3.98
2019-05-19T15:33:53.409Z,3.80
2019-05-19T15:36:15.168Z,3.75
2019-05-19T15:38:36.552Z,3.85
2019-05-19T15:40:58.499Z,3.65
2019-05-19T15:43:19.900Z,3.37
2019-05-19T15:45:41.232Z,3.55
2019-05-19T15:48:02.639Z,3.47
2019-05-19T15:50:24.166Z,4.22
2019-05-19T15:52:45.850Z,3.95
2019-05-19T15:55:07.366Z,4.10
2019-05-19T15:57:28.857Z,3.90
2019-05-19T15:59:50.775Z,3.67
2019-05-19T16:02:12.278Z,2.90
2019-05-19T16:04:33.594Z,3.52
2019-05-19T16:06:55.630Z,3.65
2019-05-19T16:09:17.077Z,3.83
2019-05-19T16:11:38.608Z,3.40
2019-05-19T16:14:00.198Z,3.72
2019-05-19T16:16:22.010Z,3.15
2019-05-19T16:18:43.533Z,3.95
2019-05-19T16:21:04.810Z,3.75
2019-05-19T16:23:26.133Z,3.58
2019-05-19T16:25:47.657Z,3.35
2019-05-19T16:28:09.096Z,3.15
2019-05-19T16:30:30.478Z,3.60
2019-05-19T16:32:52.431Z,3.42
2019-05-19T16:35:13.932Z,3.37
2019-05-19T16:37:35.665Z,3.35
2019-05-19T16:39:57.197Z,3.87
2019-05-19T16:42:18.632Z,3.50
2019-05-19T16:44:40.173Z,3.27
2019-05-19T16:47:01.949Z,4.17
2019-05-19T16:49:23.785Z,4.40
2019-05-19T16:51:45.463Z,4.30
2019-05-19T16:54:11.555Z,5.03
2019-05-19T16:56:32.953Z,4.65
2019-05-19T16:58:54.437Z,4.55
2019-05-19T17:01:16.055Z,4.75
2019-05-19T17:03:37.456Z,4.90
2019-05-19T17:05:59.073Z,5.03
2019-05-19T17:08:20.667Z,4.90
2019-05-19T17:10:42.071Z,5.00
2019-05-19T17:13:03.663Z,4.65
2019-05-19T17:15:25.095Z,4.53
2019-05-19T17:17:46.378Z,5.80
2019-05-19T17:20:07.880Z,5.72
2019-05-19T17:22:29.318Z,6.08
2019-05-19T17:24:50.733Z,5.92
2019-05-19T17:27:12.346Z,5.50
2019-05-19T17:29:34.158Z,5.65
2019-05-19T17:32:05.685Z,5.92
2019-05-19T17:34:18.857Z,5.42
2019-05-19T17:36:40.160Z,5.92
2019-05-19T17:39:01.767Z,5.12
2019-05-19T17:41:23.334Z,5.60
2019-05-19T17:43:44.853Z,5.65
2019-05-19T17:46:06.343Z,6.00
2019-05-19T17:48:28.012Z,5.80
2019-05-19T17:50:49.313Z,6.05
2019-05-19T17:53:10.678Z,7.05
2019-05-19T17:55:32.416Z,7.08
2019-05-19T17:57:53.857Z,6.10
2019-05-19T18:00:19.061Z,6.92
2019-05-19T18:02:40.606Z,6.62
2019-05-19T18:05:02.686Z,6.47
2019-05-19T18:07:24.073Z,6.53
2019-05-19T18:09:45.455Z,6.67
2019-05-19T18:12:07.049Z,6.28
2019-05-19T18:14:28.448Z,6.55
2019-05-19T18:16:50.081Z,7.95
2019-05-19T18:19:11.561Z,7.67
2019-05-19T18:21:32.947Z,6.90
2019-05-19T18:23:54.458Z,7.97
2019-05-19T18:26:18.619Z,8.28
2019-05-19T18:31:01.480Z,9.05
2019-05-19T18:33:22.819Z,8.03
2019-05-19T18:35:44.309Z,9.05
2019-05-19T18:38:06.017Z,9.78
2019-05-19T18:40:27.305Z,9.58
2019-05-19T18:42:48.898Z,10.98
2019-05-19T18:45:10.333Z,10.15
2019-05-19T18:47:32.130Z,9.75
2019-05-19T18:49:53.734Z,10.40
2019-05-19T18:52:15.163Z,10.80
2019-05-19T18:54:36.638Z,11.10
2019-05-19T18:56:58.269Z,18.45
2019-05-19T18:59:19.685Z,10.18
2019-05-19T19:01:41.296Z,8.83
2019-05-19T19:04:02.887Z,9.43
2019-05-19T19:06:26.714Z,8.73
2019-05-19T19:08:48.414Z,9.15
2019-05-19T19:11:09.933Z,8.60
2019-05-19T19:13:31.552Z,8.23
2019-05-19T19:15:53.039Z,7.85
2019-05-19T19:18:14.537Z,8.25
2019-05-19T19:20:36.128Z,9.93
2019-05-19T19:22:57.558Z,16.95
2019-05-19T19:25:18.949Z,10.60
2019-05-19T19:27:40.400Z,8.15
2019-05-19T19:30:04.132Z,8.23
2019-05-19T19:32:25.654Z,7.67
2019-05-19T19:34:47.114Z,8.35
2019-05-19T19:37:08.587Z,8.15
2019-05-19T19:39:29.973Z,8.23
2019-05-19T19:41:51.385Z,7.83
2019-05-19T19:44:12.893Z,8.78
2019-05-19T19:46:34.427Z,8.43
2019-05-19T19:48:55.690Z,8.93
2019-05-19T19:51:16.979Z,8.58
2019-05-19T19:53:38.661Z,8.05
2019-05-19T19:56:00.189Z,7.62
2019-05-19T19:58:21.748Z,8.10
2019-05-19T20:00:43.564Z,7.70
2019-05-19T20:03:05.551Z,8.35
2019-05-19T20:05:28.360Z,9.90
2019-05-19T20:07:50.275Z,9.00
2019-05-19T20:10:11.561Z,12.30
2019-05-19T20:12:32.944Z,11.95
2019-05-19T20:14:54.561Z,43.13
2019-05-19T20:17:16.049Z,24.72
2019-05-19T20:19:37.560Z,10.30
2019-05-19T20:21:59.176Z,25.82
2019-05-19T20:24:20.770Z,8.58
2019-05-19T20:27:01.942Z,7.65
2019-05-19T20:29:23.433Z,7.55
2019-05-19T20:31:44.693Z,12.82
2019-05-19T20:34:06.118Z,15.83
2019-05-19T20:36:27.522Z,16.23
2019-05-19T20:38:48.921Z,11.95
2019-05-19T20:41:10.367Z,10.75
2019-05-19T20:43:31.768Z,9.33
2019-05-19T20:45:53.149Z,8.85
2019-05-19T20:48:14.461Z,22.73
2019-05-19T20:50:35.938Z,15.65
2019-05-19T20:52:57.531Z,27.27
2019-05-19T20:55:18.954Z,11.73
2019-05-19T20:57:40.363Z,8.18
2019-05-19T21:00:03.140Z,9.00
2019-05-19T21:02:24.670Z,8.70
2019-05-19T21:04:46.155Z,9.68
2019-05-19T21:07:08.550Z,10.23
2019-05-19T21:09:35.943Z,10.65
2019-05-19T21:11:57.232Z,9.15
2019-05-19T21:14:19.202Z,8.78
2019-05-19T21:16:40.647Z,11.35
2019-05-19T21:19:02.266Z,10.90
2019-05-19T21:21:23.721Z,10.28
2019-05-19T21:23:45.014Z,9.23
2019-05-19T21:26:06.287Z,11.20
2019-05-19T21:28:27.684Z,9.75
2019-05-19T21:30:49.000Z,9.13
2019-05-19T21:33:10.374Z,11.25
2019-05-19T21:35:31.650Z,10.98
2019-05-19T21:37:53.064Z,10.35
2019-05-19T21:40:16.432Z,10.50
2019-05-19T21:42:37.819Z,13.47
2019-05-19T21:44:59.230Z,12.58
2019-05-19T21:47:20.660Z,12.13
2019-05-19T21:49:42.234Z,11.93
2019-05-19T21:52:03.676Z,13.15
2019-05-19T21:54:26.013Z,10.15
2019-05-19T21:56:47.377Z,12.37
2019-05-19T21:59:08.833Z,12.03
2019-05-19T22:01:30.338Z,11.85
2019-05-19T22:03:51.846Z,11.83
2019-05-19T22:06:13.859Z,9.48
2019-05-19T22:08:35.268Z,8.30
2019-05-19T22:10:56.874Z,7.85
2019-05-19T22:13:18.406Z,8.15
2019-05-19T22:15:40.007Z,8.60
2019-05-19T22:18:01.416Z,9.18
2019-05-19T22:20:22.956Z,8.93
2019-05-19T22:22:44.328Z,9.20
2019-05-19T22:25:06.208Z,8.53
2019-05-19T22:27:27.758Z,8.60
2019-05-19T22:29:49.341Z,7.92
2019-05-19T22:32:10.849Z,8.28
2019-05-19T22:34:32.670Z,7.20
2019-05-19T22:36:54.075Z,6.90
2019-05-19T22:39:15.548Z,7.28
2019-05-19T22:41:36.984Z,7.97
2019-05-19T22:43:58.274Z,6.95
2019-05-19T22:46:19.558Z,8.35
2019-05-19T22:48:41.086Z,8.08
2019-05-19T22:51:02.712Z,8.80
2019-05-19T22:53:24.709Z,8.63
2019-05-19T22:55:46.339Z,8.80
2019-05-19T22:58:08.006Z,10.20
2019-05-19T23:00:29.378Z,9.73
2019-05-19T23:02:50.937Z,9.60
2019-05-19T23:05:14.297Z,9.58
2019-05-19T23:07:35.592Z,9.60
2019-05-19T23:09:57.125Z,8.75
2019-05-19T23:12:18.396Z,8.53
2019-05-19T23:14:39.880Z,8.00
2019-05-19T23:17:01.415Z,9.40
2019-05-19T23:19:22.722Z,8.00
2019-05-19T23:21:44.660Z,7.85
2019-05-19T23:24:06.001Z,9.10
2019-05-19T23:26:27.560Z,9.15
2019-05-19T23:28:48.965Z,7.40
2019-05-19T23:31:15.754Z,7.03
2019-05-19T23:33:37.338Z,6.17
2019-05-19T23:35:58.735Z,6.25
2019-05-19T23:38:20.063Z,7.85
2019-05-19T23:40:41.541Z,7.15
2019-05-19T23:43:03.072Z,7.03
2019-05-19T23:45:24.603Z,7.22
2019-05-19T23:47:46.302Z,6.58
2019-05-19T23:50:07.690Z,6.37
2019-05-19T23:52:29.434Z,6.90
2019-05-19T23:54:51.030Z,7.35
2019-05-19T23:57:12.541Z,6.58
2019-05-19T23:59:48.880Z,7.22
